Sekiu, Washington
Current Conditions -  °F | °C
As of 10:53 AM on Saturday 25 Oct 2014 (Local Time) from KUIL Reporting Station
Light Rain Light Rain  
Wind Chill: 56°   Ceiling: 7500
Heat Index: 56°   Visibility: 5mi
Dew Point: 52°   Wind: 7mph
Humidity: 87%   Direction: 150°SSE
Pressure: 29.34"   Gusts: NA
Location:  48.26°N, 124.3°W
Report Text: KUIL 251753Z AUTO 15006KT 5SM -RA BR FEW039 BKN075 OVC085 13/11 A2934 RMK AO2 RAB21 SLP935 P0001 60006 T01330111 10139 20111 58006
Loading
Personal Weather Stations






























Interactive Weather Map
Tropical Storm Tracking
New forecast layout! Learn more

10-Day Weather Forecast

Advertisements
Track Severe Weather on mobile